logo
Rechercher aéroport 
image banner adimage banner adimage banner ad
image banner ad

63CA - Desert Air Sky Ranch

Situé à North Shore, United States

ICAO - 63CA, IATA -

Données fournies par Airmate  

Information générale

Coordonnées: N33°28'52" W115°52'27"
Élévation : feet MSL.
Variation magnétique : 13° East
Voir autres Aéroports à California

Données opérationnelles

Special qualification required
Heure actuelle UTC:
Heure actuelle locale:
Météo à : KTRM - Jacqueline Cochran Rgnl ( 31 km )
METAR: KTRM 281052Z AUTO 00000KT 10SM CLR 25/14 A2980 RMK AO2 SLP093 T02500139
TAF: KTRM 272337Z 2800/2824 14008KT P6SM SCT150 FM280200 VRB05KT P6SM FEW100 FM281900 14013G19KT P6SM SCT150
Voir NOTAMs / SUP AIP / TFR affectant cet aéroport [VIEW]
Fréquences de communication: [VIEW]

Pistes:

Identifiant RWYQFULongueur (ft)Largeur (ft)SurfaceLDA (ft)
103000100EARTH
283000100EARTH

Coordonnées de l'aéroport

Adresse: North Shore United States

Vue satellite de 63CA